createdAt,value
2023-01-17T00:00:06.174Z,2.65
2023-01-17T00:00:56.096Z,2.65
2023-01-17T00:01:46.121Z,2.63
2023-01-17T00:02:36.170Z,2.63
2023-01-17T00:03:26.105Z,2.61
2023-01-17T00:04:16.096Z,2.61
2023-01-17T00:05:06.062Z,2.59
2023-01-17T00:05:56.076Z,2.56
2023-01-17T00:06:46.034Z,2.56
2023-01-17T00:07:36.059Z,2.56
2023-01-17T00:08:26.033Z,2.55
2023-01-17T00:09:16.005Z,2.55
2023-01-17T00:10:06.018Z,2.56
2023-01-17T00:10:56.004Z,2.55
2023-01-17T00:11:45.976Z,2.55
2023-01-17T00:12:42.981Z,2.53
2023-01-17T00:13:32.956Z,2.53
2023-01-17T00:14:22.961Z,2.53
2023-01-17T00:15:05.947Z,2.55
2023-01-17T00:15:55.966Z,2.56
2023-01-17T00:16:45.931Z,2.50
2023-01-17T00:17:35.944Z,2.53
2023-01-17T00:18:25.924Z,2.51
2023-01-17T00:19:15.917Z,2.53
2023-01-17T00:20:05.938Z,2.55
2023-01-17T00:20:55.893Z,2.55
2023-01-17T00:21:45.886Z,2.56
2023-01-17T00:22:35.882Z,2.58
2023-01-17T00:23:25.881Z,2.59
2023-01-17T00:24:15.852Z,2.61
2023-01-17T00:25:05.838Z,2.61
2023-01-17T00:25:55.865Z,2.59
2023-01-17T00:26:45.828Z,2.59
2023-01-17T00:27:35.830Z,2.58
2023-01-17T00:28:25.807Z,2.59
2023-01-17T00:29:15.814Z,2.58
2023-01-17T00:30:05.803Z,2.59
2023-01-17T00:30:55.797Z,2.58
2023-01-17T00:31:45.815Z,2.58
2023-01-17T00:32:35.795Z,2.58
2023-01-17T00:33:25.739Z,2.58
2023-01-17T00:34:15.760Z,2.59
2023-01-17T00:35:05.789Z,2.59
2023-01-17T00:35:55.734Z,2.58
2023-01-17T00:36:45.703Z,2.58
2023-01-17T00:37:35.742Z,2.59
2023-01-17T00:38:25.731Z,2.59
2023-01-17T00:39:15.700Z,2.61
2023-01-17T00:40:05.680Z,2.61
2023-01-17T00:40:55.659Z,2.63
2023-01-17T00:41:45.657Z,2.63
2023-01-17T00:42:35.665Z,2.65
2023-01-17T00:43:25.655Z,2.66
2023-01-17T00:44:15.636Z,2.66
2023-01-17T00:45:05.615Z,2.66
2023-01-17T00:45:55.619Z,2.69
2023-01-17T00:46:45.701Z,2.73
2023-01-17T00:47:35.629Z,2.73
2023-01-17T00:48:25.599Z,2.74
2023-01-17T00:49:15.588Z,2.74
2023-01-17T00:50:05.565Z,2.76
2023-01-17T00:50:55.561Z,2.76
2023-01-17T00:51:45.555Z,2.76
2023-01-17T00:52:35.575Z,2.73
2023-01-17T00:53:25.547Z,2.71
2023-01-17T00:54:17.505Z,2.74
2023-01-17T00:55:05.532Z,2.71
2023-01-17T00:55:55.501Z,2.71
2023-01-17T00:56:45.496Z,2.69
2023-01-17T00:57:35.526Z,2.63
2023-01-17T00:58:25.503Z,2.61
2023-01-17T00:59:15.456Z,2.59
2023-01-17T01:00:05.469Z,2.59
2023-01-17T01:00:55.552Z,2.59
2023-01-17T01:01:45.580Z,2.58
2023-01-17T01:02:35.511Z,2.59
2023-01-17T01:03:25.425Z,2.58
2023-01-17T01:04:15.436Z,2.59
2023-01-17T01:05:05.403Z,2.61
2023-01-17T01:05:55.405Z,2.59
2023-01-17T01:06:45.392Z,2.56
2023-01-17T01:07:35.404Z,2.58
2023-01-17T01:08:25.380Z,2.58
2023-01-17T01:09:15.415Z,2.56
2023-01-17T01:10:05.356Z,2.55
2023-01-17T01:10:55.401Z,2.55
2023-01-17T01:11:45.353Z,2.55
2023-01-17T01:12:35.357Z,2.56
2023-01-17T01:13:25.314Z,2.55
2023-01-17T01:14:15.300Z,2.56
2023-01-17T01:15:05.308Z,2.58
2023-01-17T01:15:55.325Z,2.58
2023-01-17T01:16:45.271Z,2.56
2023-01-17T01:17:35.273Z,2.58
2023-01-17T01:18:25.253Z,2.55
2023-01-17T01:19:15.273Z,2.55
2023-01-17T01:20:05.261Z,2.53
2023-01-17T01:20:55.239Z,2.53
2023-01-17T01:21:45.211Z,2.55
2023-01-17T01:22:35.216Z,2.55
2023-01-17T01:23:25.201Z,2.53
2023-01-17T01:24:15.200Z,2.53
2023-01-17T01:25:05.181Z,2.56
2023-01-17T01:25:55.191Z,2.56
2023-01-17T01:26:45.180Z,2.58
2023-01-17T01:27:35.247Z,2.59
2023-01-17T01:28:25.171Z,2.59
2023-01-17T01:29:15.148Z,2.58
2023-01-17T01:30:05.132Z,2.58
2023-01-17T01:30:55.115Z,2.55
2023-01-17T01:31:45.149Z,2.53
2023-01-17T01:32:35.123Z,2.53
2023-01-17T01:33:25.123Z,2.50
2023-01-17T01:34:15.077Z,2.50
2023-01-17T01:35:05.069Z,2.51
2023-01-17T01:35:55.068Z,2.50
2023-01-17T01:36:45.070Z,2.48
2023-01-17T01:37:35.072Z,2.44
2023-01-17T01:38:25.048Z,2.44
2023-01-17T01:39:15.040Z,2.43
2023-01-17T01:40:05.024Z,2.43
2023-01-17T01:40:55.047Z,2.48
2023-01-17T01:41:45.019Z,2.50
2023-01-17T01:42:35.030Z,2.50
2023-01-17T01:43:24.987Z,2.51
2023-01-17T01:44:14.984Z,2.48
2023-01-17T01:45:04.975Z,2.48
2023-01-17T01:45:54.964Z,2.50
2023-01-17T01:46:44.958Z,2.47
2023-01-17T01:47:34.946Z,2.45
2023-01-17T01:48:24.929Z,2.44
2023-01-17T01:49:14.929Z,2.47
2023-01-17T01:50:04.919Z,2.45
2023-01-17T01:50:54.932Z,2.43
2023-01-17T01:51:44.898Z,2.41
2023-01-17T01:52:34.945Z,2.41
2023-01-17T01:53:24.894Z,2.41
2023-01-17T01:54:14.877Z,2.41
2023-01-17T01:55:04.865Z,2.43
2023-01-17T01:55:54.853Z,2.43
2023-01-17T01:56:44.834Z,2.43
2023-01-17T01:57:34.853Z,2.41
2023-01-17T01:58:24.838Z,2.41
2023-01-17T01:59:14.809Z,2.41
2023-01-17T02:00:04.850Z,2.41
2023-01-17T02:00:54.870Z,2.43
2023-01-17T02:01:44.941Z,2.41
2023-01-17T02:02:34.784Z,2.40
2023-01-17T02:03:24.781Z,2.40
2023-01-17T02:04:14.758Z,2.41
2023-01-17T02:05:04.985Z,2.38
2023-01-17T02:05:54.748Z,2.37
2023-01-17T02:06:44.743Z,2.37
2023-01-17T02:07:34.741Z,2.38
2023-01-17T02:08:24.702Z,2.38
2023-01-17T02:09:14.732Z,2.37
2023-01-17T02:10:04.711Z,2.37
2023-01-17T02:10:54.692Z,2.38
2023-01-17T02:11:44.683Z,2.37
2023-01-17T02:12:34.674Z,2.37
2023-01-17T02:13:24.664Z,2.36
2023-01-17T02:14:14.656Z,2.36
2023-01-17T02:15:04.641Z,2.32
2023-01-17T02:15:54.659Z,2.33
2023-01-17T02:16:44.645Z,2.32
2023-01-17T02:17:34.625Z,2.30
2023-01-17T02:18:24.611Z,2.32
2023-01-17T02:19:14.584Z,2.32
2023-01-17T02:20:04.661Z,2.30
2023-01-17T02:20:54.579Z,2.30
2023-01-17T02:21:44.615Z,2.30
2023-01-17T02:22:34.563Z,2.32
2023-01-17T02:23:24.549Z,2.36
2023-01-17T02:24:14.554Z,2.36
2023-01-17T02:25:04.546Z,2.36
2023-01-17T02:25:54.536Z,2.36
2023-01-17T02:26:44.542Z,2.32
2023-01-17T02:27:34.519Z,2.32
2023-01-17T02:28:24.513Z,2.32
2023-01-17T02:29:14.481Z,2.33
2023-01-17T02:30:04.479Z,2.33
2023-01-17T02:30:54.489Z,2.33
2023-01-17T02:31:44.562Z,2.32
2023-01-17T02:32:34.482Z,2.32
2023-01-17T02:33:24.584Z,2.30
2023-01-17T02:34:14.416Z,2.27
2023-01-17T02:35:04.428Z,2.25
2023-01-17T02:35:54.453Z,2.26
2023-01-17T02:36:44.417Z,2.22
2023-01-17T02:37:34.406Z,2.20
2023-01-17T02:38:24.398Z,2.20
2023-01-17T02:39:14.385Z,2.19
2023-01-17T02:40:04.381Z,2.19
2023-01-17T02:40:54.365Z,2.18
2023-01-17T02:41:44.363Z,2.19
2023-01-17T02:42:34.402Z,2.20
2023-01-17T02:43:24.337Z,2.20
2023-01-17T02:44:14.331Z,2.18
2023-01-17T02:45:04.327Z,2.18
2023-01-17T02:45:54.361Z,2.14
2023-01-17T02:46:44.342Z,2.12
2023-01-17T02:47:34.300Z,2.12
2023-01-17T02:48:24.314Z,2.09
2023-01-17T02:49:14.272Z,2.09
2023-01-17T02:50:04.285Z,2.08
2023-01-17T02:50:54.246Z,2.05
2023-01-17T02:51:44.252Z,2.07
2023-01-17T02:52:34.250Z,2.04
2023-01-17T02:53:24.227Z,2.04
2023-01-17T02:54:14.205Z,2.04
2023-01-17T02:55:04.207Z,2.02
2023-01-17T02:55:54.198Z,2.02
2023-01-17T02:56:44.187Z,2.02
2023-01-17T02:57:34.210Z,2.01
2023-01-17T02:58:24.169Z,2.00
2023-01-17T02:59:14.157Z,2.02
2023-01-17T03:00:04.154Z,2.00
2023-01-17T03:00:54.188Z,2.00
2023-01-17T03:01:44.276Z,1.95
2023-01-17T03:02:34.196Z,1.93
2023-01-17T03:03:24.133Z,1.93
2023-01-17T03:04:14.100Z,1.90
2023-01-17T03:05:04.104Z,1.88
2023-01-17T03:05:54.079Z,1.88
2023-01-17T03:06:44.088Z,1.88
2023-01-17T03:07:34.149Z,1.85
2023-01-17T03:08:24.061Z,1.85
2023-01-17T03:09:14.063Z,1.82
2023-01-17T03:10:04.079Z,1.83
2023-01-17T03:10:54.035Z,1.82
2023-01-17T03:11:44.029Z,1.82
2023-01-17T03:12:34.045Z,1.82
2023-01-17T03:13:23.999Z,1.81
2023-01-17T03:14:14.009Z,1.82
2023-01-17T03:15:03.989Z,1.81
2023-01-17T03:15:53.971Z,1.81
2023-01-17T03:16:44.054Z,1.79
2023-01-17T03:17:34.028Z,1.81
2023-01-17T03:18:23.944Z,1.77
2023-01-17T03:19:13.950Z,1.79
2023-01-17T03:20:03.941Z,1.79
2023-01-17T03:20:53.927Z,1.79
2023-01-17T03:21:43.908Z,1.77
2023-01-17T03:22:33.933Z,1.77
2023-01-17T03:23:23.907Z,1.77
2023-01-17T03:24:13.893Z,1.79
2023-01-17T03:25:03.875Z,1.79
2023-01-17T03:25:53.879Z,1.79
2023-01-17T03:26:43.848Z,1.79
2023-01-17T03:27:33.890Z,1.79
2023-01-17T03:28:23.848Z,1.81
2023-01-17T03:29:13.825Z,1.77
2023-01-17T03:30:03.827Z,1.77
2023-01-17T03:30:53.855Z,1.77
2023-01-17T03:31:43.807Z,1.77
2023-01-17T03:32:33.804Z,1.75
2023-01-17T03:33:23.789Z,1.74
2023-01-17T03:34:13.773Z,1.75
2023-01-17T03:35:03.776Z,1.75
2023-01-17T03:35:53.820Z,1.72
2023-01-17T03:36:43.782Z,1.74
2023-01-17T03:37:33.749Z,1.72
2023-01-17T03:38:23.728Z,1.71
2023-01-17T03:39:13.737Z,1.71
2023-01-17T03:40:03.715Z,1.71
2023-01-17T03:40:53.719Z,1.70
2023-01-17T03:41:43.715Z,1.70
2023-01-17T03:42:33.698Z,1.68
2023-01-17T03:43:23.673Z,1.67
2023-01-17T03:44:13.685Z,1.65
2023-01-17T03:45:03.676Z,1.65
2023-01-17T03:45:53.650Z,1.64
2023-01-17T03:46:43.648Z,1.61
2023-01-17T03:47:33.651Z,1.61
2023-01-17T03:48:23.698Z,1.61
2023-01-17T03:49:13.602Z,1.57
2023-01-17T03:50:03.618Z,1.56
2023-01-17T03:50:53.616Z,1.54
2023-01-17T03:51:43.595Z,1.54
2023-01-17T03:52:33.605Z,1.53
2023-01-17T03:53:23.575Z,1.52
2023-01-17T03:54:13.557Z,1.50
2023-01-17T03:55:03.588Z,1.49
2023-01-17T03:55:53.550Z,1.49
2023-01-17T03:56:43.541Z,1.49
2023-01-17T03:57:33.552Z,1.46
2023-01-17T03:58:23.509Z,1.44
2023-01-17T03:59:13.500Z,1.43
2023-01-17T04:00:03.525Z,1.43
2023-01-17T04:00:53.563Z,1.42
2023-01-17T04:01:43.663Z,1.39
2023-01-17T04:02:33.489Z,1.39
2023-01-17T04:03:23.471Z,1.39
2023-01-17T04:04:13.451Z,1.36
2023-01-17T04:05:03.444Z,1.36
2023-01-17T04:05:53.429Z,1.38
2023-01-17T04:06:43.412Z,1.38
2023-01-17T04:07:33.414Z,1.32
2023-01-17T04:08:23.401Z,1.28
2023-01-17T04:09:13.435Z,1.28
2023-01-17T04:10:03.393Z,1.28
2023-01-17T04:10:53.376Z,1.28
2023-01-17T04:11:43.401Z,1.25
2023-01-17T04:12:33.380Z,1.21
2023-01-17T04:13:23.375Z,1.20
2023-01-17T04:14:13.348Z,1.20
2023-01-17T04:15:03.354Z,1.17
2023-01-17T04:15:53.321Z,1.14
2023-01-17T04:16:43.353Z,1.16
2023-01-17T04:17:33.326Z,1.16
2023-01-17T04:18:23.305Z,1.16
2023-01-17T04:19:13.291Z,1.16
2023-01-17T04:20:03.288Z,1.14
2023-01-17T04:20:53.269Z,1.16
2023-01-17T04:21:43.250Z,1.16
2023-01-17T04:22:33.267Z,1.13
2023-01-17T04:23:23.330Z,1.13
2023-01-17T04:24:13.236Z,1.13
2023-01-17T04:25:03.213Z,1.11
2023-01-17T04:25:53.216Z,1.11
2023-01-17T04:26:43.198Z,1.13
2023-01-17T04:27:33.246Z,1.10
2023-01-17T04:28:23.182Z,1.08
2023-01-17T04:29:13.179Z,1.08
2023-01-17T04:30:03.158Z,1.08
2023-01-17T04:30:53.176Z,1.07
2023-01-17T04:31:43.184Z,1.10
2023-01-17T04:32:33.156Z,1.10
2023-01-17T04:33:23.127Z,1.10
2023-01-17T04:34:13.125Z,1.11
2023-01-17T04:35:03.183Z,1.10
2023-01-17T04:35:53.108Z,1.08
2023-01-17T04:36:43.130Z,1.10
2023-01-17T04:37:33.110Z,1.08
2023-01-17T04:38:23.076Z,1.07
2023-01-17T04:39:13.084Z,1.07
2023-01-17T04:40:03.081Z,1.07
2023-01-17T04:40:53.060Z,1.07
2023-01-17T04:41:43.038Z,1.08
2023-01-17T04:42:33.094Z,1.08
2023-01-17T04:43:23.038Z,1.07
2023-01-17T04:44:13.018Z,1.08
2023-01-17T04:45:03.030Z,1.10
2023-01-17T04:45:53.037Z,1.11
2023-01-17T04:46:42.992Z,1.11
2023-01-17T04:47:33.006Z,1.11
2023-01-17T04:48:22.983Z,1.13
2023-01-17T04:49:12.963Z,1.11
2023-01-17T04:50:02.948Z,1.14
2023-01-17T04:50:52.980Z,1.14
2023-01-17T04:51:42.959Z,1.16
2023-01-17T04:52:32.949Z,1.17
2023-01-17T04:53:22.917Z,1.16
2023-01-17T04:54:12.915Z,1.17
2023-01-17T04:55:02.933Z,1.17
2023-01-17T04:55:52.878Z,1.16
2023-01-17T04:56:42.921Z,1.16
2023-01-17T04:57:32.902Z,1.14
2023-01-17T04:58:22.893Z,1.16
2023-01-17T04:59:12.856Z,1.16
2023-01-17T05:00:02.843Z,1.11
2023-01-17T05:00:52.898Z,1.13
2023-01-17T05:01:42.987Z,1.13
2023-01-17T05:02:32.884Z,1.13
2023-01-17T05:03:22.805Z,1.11
2023-01-17T05:04:12.849Z,1.10
2023-01-17T05:05:02.782Z,1.10
2023-01-17T05:05:52.792Z,1.10
2023-01-17T05:06:42.786Z,1.07
2023-01-17T05:07:35.009Z,1.07
2023-01-17T05:08:22.793Z,1.06
2023-01-17T05:09:12.755Z,1.06
2023-01-17T05:10:02.731Z,1.04
2023-01-17T05:10:52.749Z,1.04
2023-01-17T05:11:42.705Z,1.02
2023-01-17T05:12:32.740Z,1.00
2023-01-17T05:13:22.679Z,1.00
2023-01-17T05:14:12.689Z,1.00
2023-01-17T05:15:02.672Z,1.00
2023-01-17T05:15:52.672Z,1.00
2023-01-17T05:16:42.660Z,1.00
2023-01-17T05:17:32.665Z,1.00
2023-01-17T05:18:22.638Z,1.00
2023-01-17T05:19:12.979Z,0.99
2023-01-17T05:20:02.617Z,0.99
2023-01-17T05:20:52.604Z,0.98
2023-01-17T05:21:42.605Z,0.96
2023-01-17T05:22:32.599Z,0.93
2023-01-17T05:23:22.579Z,0.93
2023-01-17T05:24:12.574Z,0.90
2023-01-17T05:25:02.560Z,0.89
2023-01-17T05:25:52.556Z,0.88
2023-01-17T05:26:42.600Z,0.84
2023-01-17T05:27:32.572Z,0.88
2023-01-17T05:28:22.534Z,0.82
2023-01-17T05:29:12.545Z,0.82
2023-01-17T05:30:02.516Z,0.82
2023-01-17T05:30:52.599Z,0.81
2023-01-17T05:31:42.493Z,0.81
2023-01-17T05:32:32.495Z,0.82
2023-01-17T05:33:22.465Z,0.81
2023-01-17T05:34:12.476Z,0.81
2023-01-17T05:35:02.473Z,0.80
2023-01-17T05:35:52.443Z,0.78
2023-01-17T05:36:42.440Z,0.80
2023-01-17T05:37:32.451Z,0.77
2023-01-17T05:38:22.428Z,0.78
2023-01-17T05:39:12.411Z,0.75
2023-01-17T05:40:02.411Z,0.75
2023-01-17T05:40:52.412Z,0.74
2023-01-17T05:41:42.372Z,0.75
2023-01-17T05:42:32.418Z,0.75
2023-01-17T05:43:22.359Z,0.74
2023-01-17T05:44:12.354Z,0.72
2023-01-17T05:45:02.344Z,0.72
2023-01-17T05:45:52.511Z,0.72
2023-01-17T05:46:42.331Z,0.72
2023-01-17T05:47:32.344Z,0.72
2023-01-17T05:48:22.309Z,0.71
2023-01-17T05:49:12.314Z,0.71
2023-01-17T05:50:02.313Z,0.71
2023-01-17T05:50:52.287Z,0.70
2023-01-17T05:51:42.276Z,0.68
2023-01-17T05:52:32.332Z,0.67
2023-01-17T05:53:22.242Z,0.67
2023-01-17T05:54:12.264Z,0.67
2023-01-17T05:55:02.247Z,0.64
2023-01-17T05:55:52.237Z,0.64
2023-01-17T05:56:42.227Z,0.64
2023-01-17T05:57:32.232Z,0.64
2023-01-17T05:58:22.233Z,0.64
2023-01-17T05:59:14.189Z,0.63
2023-01-17T06:00:02.210Z,0.63
2023-01-17T06:00:52.209Z,0.62
2023-01-17T06:01:42.183Z,0.59
2023-01-17T06:02:32.235Z,0.52
2023-01-17T06:03:22.160Z,0.48
2023-01-17T06:04:12.187Z,0.43
2023-01-17T06:05:03.503Z,0.41
2023-01-17T06:05:52.133Z,0.38
2023-01-17T06:06:42.117Z,0.38
2023-01-17T06:07:32.117Z,0.33
2023-01-17T06:08:22.083Z,0.31
2023-01-17T06:09:12.088Z,0.31
2023-01-17T06:10:02.075Z,0.31
2023-01-17T06:10:52.126Z,0.30
2023-01-17T06:11:42.055Z,0.30
2023-01-17T06:12:32.058Z,0.30
2023-01-17T06:13:22.103Z,0.30
2023-01-17T06:14:12.041Z,0.30
2023-01-17T06:15:02.020Z,0.28
2023-01-17T06:15:52.079Z,0.23
2023-01-17T06:16:41.994Z,0.22
2023-01-17T06:17:32.014Z,0.20
2023-01-17T06:18:21.985Z,0.16
2023-01-17T06:19:11.987Z,0.15
2023-01-17T06:20:01.998Z,0.10
2023-01-17T06:20:51.972Z,0.10
2023-01-17T06:21:41.938Z,0.10
2023-01-17T06:22:31.962Z,0.10
2023-01-17T06:23:21.934Z,0.10
2023-01-17T06:24:11.916Z,0.10
2023-01-17T06:25:01.896Z,0.12
2023-01-17T06:25:51.894Z,0.12
2023-01-17T06:26:41.915Z,0.12
2023-01-17T06:27:31.991Z,0.10
2023-01-17T06:28:21.892Z,0.12
2023-01-17T06:29:11.902Z,0.12
2023-01-17T06:30:01.886Z,0.10
2023-01-17T06:30:51.850Z,0.08
2023-01-17T06:31:41.826Z,0.08
2023-01-17T06:32:31.842Z,0.10
2023-01-17T06:33:21.815Z,0.10
2023-01-17T06:34:11.827Z,0.10
2023-01-17T06:35:01.815Z,0.07
2023-01-17T06:35:51.806Z,0.07
2023-01-17T06:36:41.771Z,0.08
2023-01-17T06:37:31.790Z,0.08
2023-01-17T06:38:21.795Z,0.07
2023-01-17T06:39:14.108Z,0.08
2023-01-17T06:40:01.758Z,0.08
2023-01-17T06:40:51.742Z,0.08
2023-01-17T06:41:41.734Z,0.07
2023-01-17T06:42:31.729Z,0.07
2023-01-17T06:43:21.717Z,0.05
2023-01-17T06:44:11.718Z,0.05
2023-01-17T06:45:01.762Z,0.05
2023-01-17T06:45:51.677Z,0.05
2023-01-17T06:46:41.730Z,0.04
2023-01-17T06:47:31.687Z,0.04
2023-01-17T06:48:21.647Z,0.07
2023-01-17T06:49:11.664Z,0.05
2023-01-17T06:50:01.714Z,0.07
2023-01-17T06:50:51.628Z,0.05
2023-01-17T06:51:43.571Z,0.07
2023-01-17T06:52:31.651Z,0.05
2023-01-17T06:53:21.592Z,0.07
2023-01-17T06:54:11.591Z,0.07
2023-01-17T06:55:01.636Z,0.07
2023-01-17T06:55:51.573Z,0.05
2023-01-17T06:56:41.561Z,0.08
2023-01-17T06:57:31.577Z,0.05
2023-01-17T06:58:21.541Z,0.07
2023-01-17T06:59:11.539Z,0.04
2023-01-17T07:00:01.615Z,0.04
2023-01-17T07:00:51.653Z,0.02
2023-01-17T07:01:41.677Z,0.02
2023-01-17T07:02:31.517Z,0.04
2023-01-17T07:03:21.499Z,0.02
2023-01-17T07:04:11.555Z,0.04
2023-01-17T07:05:01.478Z,0.05
2023-01-17T07:05:51.486Z,0.05
2023-01-17T07:06:41.459Z,0.07
2023-01-17T07:07:33.669Z,0.07
2023-01-17T07:08:21.435Z,0.10
2023-01-17T07:09:11.485Z,0.08
2023-01-17T07:10:01.442Z,0.10
2023-01-17T07:10:51.415Z,0.12
2023-01-17T07:11:41.401Z,0.13
2023-01-17T07:12:31.412Z,0.15
2023-01-17T07:13:21.388Z,0.15
2023-01-17T07:14:11.367Z,0.13
2023-01-17T07:15:01.389Z,0.10
2023-01-17T07:15:58.376Z,0.07
2023-01-17T07:16:48.328Z,0.05
2023-01-17T07:17:31.348Z,0.08
2023-01-17T07:18:21.316Z,0.07
2023-01-17T07:19:11.325Z,0.05
2023-01-17T07:20:01.300Z,0.07
2023-01-17T07:20:51.307Z,0.05
2023-01-17T07:21:41.289Z,0.07
2023-01-17T07:22:31.287Z,0.07
2023-01-17T07:23:21.271Z,0.07
2023-01-17T07:24:11.261Z,0.07
2023-01-17T07:25:01.245Z,0.07
2023-01-17T07:25:51.271Z,0.10
2023-01-17T07:26:41.244Z,0.10
2023-01-17T07:27:31.301Z,0.10
2023-01-17T07:28:21.237Z,0.13
2023-01-17T07:29:11.215Z,0.13
2023-01-17T07:30:01.223Z,0.16
2023-01-17T07:30:51.208Z,0.16
2023-01-17T07:31:41.214Z,0.15
2023-01-17T07:32:31.184Z,0.15
2023-01-17T07:33:21.165Z,0.16
2023-01-17T07:34:11.158Z,0.16
2023-01-17T07:35:01.137Z,0.17
2023-01-17T07:35:51.141Z,0.17
2023-01-17T07:36:41.116Z,0.17
2023-01-17T07:37:31.142Z,0.17
2023-01-17T07:38:21.132Z,0.16
2023-01-17T07:39:11.095Z,0.17
2023-01-17T07:40:01.143Z,0.15
2023-01-17T07:40:51.111Z,0.16
2023-01-17T07:41:41.145Z,0.16
2023-01-17T07:42:31.078Z,0.16
2023-01-17T07:43:21.057Z,0.17
2023-01-17T07:44:11.053Z,0.17
2023-01-17T07:45:01.030Z,0.17
2023-01-17T07:45:51.039Z,0.16
2023-01-17T07:46:41.051Z,0.17
2023-01-17T07:47:31.029Z,0.15
2023-01-17T07:48:21.004Z,0.13
2023-01-17T07:49:11.006Z,0.12
2023-01-17T07:50:00.986Z,0.15
2023-01-17T07:50:50.979Z,0.13
2023-01-17T07:51:40.961Z,0.15
2023-01-17T07:52:31.022Z,0.17
2023-01-17T07:53:20.955Z,0.19
2023-01-17T07:54:10.941Z,0.20
2023-01-17T07:55:00.946Z,0.22
2023-01-17T07:55:50.918Z,0.25
2023-01-17T07:56:40.936Z,0.25
2023-01-17T07:57:30.920Z,0.26
2023-01-17T07:58:20.894Z,0.25
2023-01-17T07:59:10.898Z,0.23
2023-01-17T08:00:00.871Z,0.23
2023-01-17T08:00:50.987Z,0.22
2023-01-17T08:01:41.002Z,0.23
2023-01-17T08:02:30.852Z,0.23
2023-01-17T08:03:20.857Z,0.17
2023-01-17T08:04:10.839Z,0.17
2023-01-17T08:05:00.820Z,0.16
2023-01-17T08:05:50.828Z,0.15
2023-01-17T08:06:40.810Z,0.13
2023-01-17T08:07:30.802Z,0.13
2023-01-17T08:08:20.780Z,0.12
2023-01-17T08:09:10.778Z,0.10
2023-01-17T08:10:00.783Z,0.12
2023-01-17T08:10:50.748Z,0.13
2023-01-17T08:11:40.740Z,0.13
2023-01-17T08:12:30.748Z,0.15
2023-01-17T08:13:20.723Z,0.17
2023-01-17T08:14:10.712Z,0.20
2023-01-17T08:15:00.744Z,0.19
2023-01-17T08:15:50.692Z,0.22
2023-01-17T08:16:40.720Z,0.22
2023-01-17T08:17:30.705Z,0.22
2023-01-17T08:18:20.682Z,0.23
2023-01-17T08:19:10.653Z,0.25
2023-01-17T08:20:00.648Z,0.25
2023-01-17T08:20:50.647Z,0.26
2023-01-17T08:21:40.653Z,0.28
2023-01-17T08:22:30.717Z,0.28
2023-01-17T08:23:20.630Z,0.28
2023-01-17T08:24:10.603Z,0.28
2023-01-17T08:25:00.619Z,0.30
2023-01-17T08:25:50.582Z,0.30
2023-01-17T08:26:40.583Z,0.30
2023-01-17T08:27:30.587Z,0.31
2023-01-17T08:28:20.582Z,0.33
2023-01-17T08:29:10.612Z,0.30
2023-01-17T08:30:00.534Z,0.30
2023-01-17T08:30:50.541Z,0.30
2023-01-17T08:31:40.659Z,0.28
2023-01-17T08:32:30.570Z,0.30
2023-01-17T08:33:20.508Z,0.28
2023-01-17T08:34:10.486Z,0.26
2023-01-17T08:35:00.490Z,0.26
2023-01-17T08:35:50.511Z,0.28
2023-01-17T08:36:40.492Z,0.31
2023-01-17T08:37:30.464Z,0.33
2023-01-17T08:38:20.488Z,0.33
2023-01-17T08:39:10.438Z,0.31
2023-01-17T08:40:00.473Z,0.34
2023-01-17T08:40:50.419Z,0.34
2023-01-17T08:41:40.425Z,0.31
2023-01-17T08:42:30.421Z,0.30
2023-01-17T08:43:20.393Z,0.26
2023-01-17T08:44:10.424Z,0.28
2023-01-17T08:45:00.393Z,0.30
2023-01-17T08:45:50.414Z,0.28
2023-01-17T08:46:40.348Z,0.31
2023-01-17T08:47:30.371Z,0.28
2023-01-17T08:48:20.378Z,0.26
2023-01-17T08:49:10.357Z,0.28
2023-01-17T08:50:00.347Z,0.31
2023-01-17T08:50:50.336Z,0.31
2023-01-17T08:51:40.309Z,0.34
2023-01-17T08:52:30.316Z,0.35
2023-01-17T08:53:20.300Z,0.38
2023-01-17T08:54:10.305Z,0.41
2023-01-17T08:55:00.278Z,0.43
2023-01-17T08:55:50.267Z,0.45
2023-01-17T08:56:40.257Z,0.44
2023-01-17T08:57:30.245Z,0.43
2023-01-17T08:58:20.258Z,0.44
2023-01-17T08:59:10.214Z,0.45
2023-01-17T09:00:00.235Z,0.48
2023-01-17T09:00:50.273Z,0.48
2023-01-17T09:01:40.294Z,0.49
2023-01-17T09:02:30.198Z,0.51
2023-01-17T09:03:21.364Z,0.52
2023-01-17T09:04:10.255Z,0.53
2023-01-17T09:05:00.264Z,0.53
2023-01-17T09:05:50.145Z,0.52
2023-01-17T09:06:40.143Z,0.56
2023-01-17T09:07:30.123Z,0.56
2023-01-17T09:08:20.125Z,0.59
2023-01-17T09:09:10.125Z,0.57
2023-01-17T09:10:00.149Z,0.57
2023-01-17T09:10:50.094Z,0.60
2023-01-17T09:11:40.077Z,0.59
2023-01-17T09:12:30.095Z,0.59
2023-01-17T09:13:20.073Z,0.60
2023-01-17T09:14:10.051Z,0.59
2023-01-17T09:15:00.121Z,0.57
2023-01-17T09:15:50.058Z,0.57
2023-01-17T09:16:40.122Z,0.51
2023-01-17T09:17:30.046Z,0.48
2023-01-17T09:18:20.027Z,0.44
2023-01-17T09:19:10.020Z,0.48
2023-01-17T09:20:00.039Z,0.48
2023-01-17T09:20:49.973Z,0.51
2023-01-17T09:21:39.988Z,0.51
2023-01-17T09:22:29.990Z,0.51
2023-01-17T09:23:19.972Z,0.49
2023-01-17T09:24:09.944Z,0.49
2023-01-17T09:24:59.943Z,0.51
2023-01-17T09:25:49.921Z,0.51
2023-01-17T09:26:39.922Z,0.51
2023-01-17T09:27:29.916Z,0.52
2023-01-17T09:28:19.915Z,0.53
2023-01-17T09:29:09.956Z,0.56
2023-01-17T09:29:59.904Z,0.57
2023-01-17T09:30:49.958Z,0.64
2023-01-17T09:31:39.880Z,0.89
2023-01-17T09:32:29.918Z,1.28
2023-01-17T09:33:19.850Z,1.70
2023-01-17T09:34:09.852Z,2.01
2023-01-17T09:34:59.847Z,2.12
2023-01-17T09:35:49.819Z,2.33
2023-01-17T09:36:39.825Z,2.43
2023-01-17T09:37:29.803Z,2.51
2023-01-17T09:38:19.808Z,2.58
2023-01-17T09:39:09.797Z,2.58
2023-01-17T09:39:59.872Z,2.62
2023-01-17T09:40:49.763Z,2.65
2023-01-17T09:41:39.768Z,2.58
2023-01-17T09:42:29.769Z,2.32
2023-01-17T09:43:19.740Z,2.05
2023-01-17T09:44:09.739Z,1.82
2023-01-17T09:44:59.734Z,1.68
2023-01-17T09:45:49.746Z,1.57
2023-01-17T09:46:39.705Z,1.52
2023-01-17T09:47:29.728Z,1.44
2023-01-17T09:48:19.717Z,1.34
2023-01-17T09:49:09.695Z,1.29
2023-01-17T09:49:59.674Z,1.31
2023-01-17T09:50:49.646Z,1.38
2023-01-17T09:51:39.675Z,1.47
2023-01-17T09:52:29.660Z,1.60
2023-01-17T09:53:19.646Z,1.71
2023-01-17T09:54:09.604Z,1.82
2023-01-17T09:54:59.605Z,1.90
2023-01-17T09:55:49.604Z,1.82
2023-01-17T09:56:39.604Z,1.74
2023-01-17T09:57:29.583Z,1.75
2023-01-17T09:58:19.603Z,1.88
2023-01-17T09:59:09.568Z,1.92
2023-01-17T10:00:03.583Z,1.82
2023-01-17T10:00:49.573Z,1.72
2023-01-17T10:01:39.762Z,1.67
2023-01-17T10:02:29.821Z,1.63
2023-01-17T10:03:19.599Z,1.57
2023-01-17T10:04:09.573Z,1.56
2023-01-17T10:04:59.503Z,1.56
2023-01-17T10:05:49.498Z,1.56
2023-01-17T10:06:39.493Z,1.56
2023-01-17T10:07:29.500Z,1.54
2023-01-17T10:08:19.472Z,1.53
2023-01-17T10:09:09.445Z,1.53
2023-01-17T10:09:59.451Z,1.50
2023-01-17T10:10:49.432Z,1.47
2023-01-17T10:11:39.422Z,1.46
2023-01-17T10:12:29.440Z,1.49
2023-01-17T10:13:19.546Z,1.50
2023-01-17T10:14:09.400Z,1.52
2023-01-17T10:14:59.401Z,1.56
2023-01-17T10:15:49.381Z,1.60
2023-01-17T10:16:39.404Z,1.61
2023-01-17T10:17:29.360Z,1.64
2023-01-17T10:18:29.648Z,1.65
2023-01-17T10:19:10.380Z,1.70
2023-01-17T10:19:59.382Z,1.72
2023-01-17T10:20:49.349Z,1.81
2023-01-17T10:21:39.318Z,1.85
2023-01-17T10:22:29.340Z,1.92
2023-01-17T10:23:19.308Z,1.98
2023-01-17T10:24:09.319Z,2.01
2023-01-17T10:24:59.277Z,2.04
2023-01-17T10:25:49.280Z,2.08
2023-01-17T10:26:39.278Z,2.12
2023-01-17T10:27:29.273Z,2.19
2023-01-17T10:28:19.259Z,2.26
2023-01-17T10:29:09.251Z,2.29
2023-01-17T10:29:59.255Z,2.32
2023-01-17T10:30:49.297Z,2.37
2023-01-17T10:31:39.236Z,2.41
2023-01-17T10:32:29.239Z,2.47
2023-01-17T10:33:19.206Z,2.51
2023-01-17T10:34:09.256Z,2.58
2023-01-17T10:34:59.189Z,2.65
2023-01-17T10:35:49.167Z,2.71
2023-01-17T10:36:39.173Z,2.76
2023-01-17T10:37:29.138Z,2.83
2023-01-17T10:38:19.173Z,2.87
2023-01-17T10:39:09.196Z,2.95
2023-01-17T10:39:59.145Z,2.98
2023-01-17T10:40:49.108Z,3.01
2023-01-17T10:41:39.117Z,3.04
2023-01-17T10:42:29.188Z,3.07
2023-01-17T10:43:19.082Z,3.08
2023-01-17T10:44:09.147Z,3.10
2023-01-17T10:44:59.074Z,3.15
2023-01-17T10:45:49.107Z,3.15
2023-01-17T10:46:39.055Z,3.16
2023-01-17T10:47:29.062Z,3.13
2023-01-17T10:48:19.073Z,3.15
2023-01-17T10:49:09.069Z,3.15
2023-01-17T10:49:59.032Z,3.13
2023-01-17T10:50:49.138Z,3.17
2023-01-17T10:51:39.002Z,3.17
2023-01-17T10:52:29.002Z,3.22
2023-01-17T10:53:18.992Z,3.22
2023-01-17T10:54:09.018Z,3.26
2023-01-17T10:54:58.970Z,3.31
2023-01-17T10:55:48.938Z,3.34
2023-01-17T10:56:38.984Z,3.34
2023-01-17T10:57:28.940Z,3.37
2023-01-17T10:58:18.934Z,3.41
2023-01-17T10:59:08.903Z,3.42
2023-01-17T10:59:58.913Z,3.44
2023-01-17T11:00:48.943Z,3.46
2023-01-17T11:01:38.980Z,3.44
2023-01-17T11:02:28.973Z,3.34
2023-01-17T11:03:18.882Z,3.31
2023-01-17T11:04:08.856Z,3.26
2023-01-17T11:04:58.863Z,3.23